Time;durP1;ratioP1;P1;durP2;ratioP2;P2;SDS_P1;SDS_P2;PMS_P1;PMS_P2;Temp;Humidity;BMP_temperature;BMP_pressure;BME280_temperature;BME280_humidity;BME280_pressure;Samples;Min_cycle;Max_cycle;Signal;HPM_P1;HPM_P2
2022/03/15 00:00:28;;;;;;;2.27;2.17;;;18.20;61.80;;;;;;5091971;27;43992;-71
2022/03/15 00:02:57;;;;;;;2.10;2.10;;;18.10;61.90;;;;;;5092630;27;43882;-71
2022/03/15 00:05:25;;;;;;;2.10;2.10;;;18.00;62.20;;;;;;5083338;28;45493;-71
2022/03/15 00:07:55;;;;;;;2.00;2.00;;;17.90;62.40;;;;;;5091912;27;43970;-71
2022/03/15 00:10:23;;;;;;;2.03;2.03;;;17.90;62.70;;;;;;5072664;28;43896;-71
2022/03/15 00:12:51;;;;;;;2.20;2.10;;;17.80;62.90;;;;;;5078026;28;44220;-71
2022/03/15 00:15:19;;;;;;;2.03;1.93;;;17.80;63.10;;;;;;5074298;28;44005;-71
2022/03/15 00:17:47;;;;;;;1.90;1.90;;;17.70;63.10;;;;;;5084585;28;43414;-71
2022/03/15 00:20:18;;;;;;;1.90;1.90;;;17.70;63.50;;;;;;5080072;28;44157;-70
2022/03/15 00:22:47;;;;;;;2.00;2.00;;;17.80;63.50;;;;;;5076427;28;43793;-71
2022/03/15 00:25:16;;;;;;;1.93;1.90;;;18.00;62.90;;;;;;5086572;28;44120;-70
2022/03/15 00:27:45;;;;;;;2.17;2.07;;;18.10;62.50;;;;;;5091257;28;43326;-71
2022/03/15 00:30:14;;;;;;;1.87;1.87;;;18.10;62.40;;;;;;5079035;27;43400;-71
2022/03/15 00:32:42;;;;;;;1.80;1.80;;;18.00;62.40;;;;;;5089103;28;43987;-71
2022/03/15 00:35:16;;;;;;;2.43;2.33;;;17.90;62.50;;;;;;5071607;28;43903;-71
2022/03/15 00:37:44;;;;;;;2.20;2.10;;;17.90;62.70;;;;;;5070415;28;43791;-71
2022/03/15 00:40:13;;;;;;;1.90;1.90;;;17.80;62.90;;;;;;5071219;28;44036;-71
2022/03/15 00:42:49;;;;;;;1.80;1.80;;;17.80;63.20;;;;;;5071260;28;43803;-71
2022/03/15 00:45:23;;;;;;;2.03;2.00;;;17.70;63.20;;;;;;5071136;28;44671;-72
2022/03/15 00:47:51;;;;;;;2.07;2.07;;;17.70;63.30;;;;;;5070021;28;43415;-71
2022/03/15 00:50:19;;;;;;;1.80;1.80;;;17.70;63.40;;;;;;5076907;28;43962;-71
2022/03/15 00:52:48;;;;;;;1.83;1.83;;;17.60;63.50;;;;;;5091332;27;43602;-71
2022/03/15 00:55:15;;;;;;;1.93;1.93;;;17.60;63.50;;;;;;5090743;28;43956;-71
2022/03/15 00:57:45;;;;;;;1.63;1.63;;;17.60;63.70;;;;;;5079286;28;43827;-71
2022/03/15 01:00:15;;;;;;;2.27;2.17;;;17.80;63.50;;;;;;5078403;28;43964;-71
2022/03/15 01:02:44;;;;;;;2.10;2.00;;;18.00;63.00;;;;;;5085228;28;43905;-71
2022/03/15 01:05:12;;;;;;;2.00;1.90;;;18.20;62.30;;;;;;5071296;28;44066;-70
2022/03/15 01:07:40;;;;;;;1.70;1.70;;;18.30;61.70;;;;;;5083960;28;44122;-72
2022/03/15 01:10:09;;;;;;;1.90;1.90;;;18.40;61.60;;;;;;5090746;28;43896;-71
2022/03/15 01:12:37;;;;;;;1.60;1.60;;;18.40;61.50;;;;;;5088380;28;46016;-71
2022/03/15 01:15:07;;;;;;;1.90;1.90;;;18.30;61.60;;;;;;5090413;28;44038;-71
2022/03/15 01:17:36;;;;;;;1.77;1.77;;;18.20;61.90;;;;;;5075746;28;43985;-71
2022/03/15 01:20:05;;;;;;;2.00;2.00;;;18.10;62.20;;;;;;5064181;28;44071;-71
2022/03/15 01:22:36;;;;;;;1.80;1.80;;;18.00;62.40;;;;;;5077889;28;43900;-71
2022/03/15 01:25:07;;;;;;;1.70;1.70;;;17.90;62.60;;;;;;5090110;27;44000;-71
2022/03/15 01:27:37;;;;;;;1.73;1.73;;;17.80;62.80;;;;;;5075901;27;43938;-71
2022/03/15 01:30:10;;;;;;;1.80;1.80;;;17.80;63.00;;;;;;5071544;28;43840;-71
2022/03/15 01:32:38;;;;;;;1.77;1.77;;;17.80;63.20;;;;;;5079164;28;45288;-71
2022/03/15 01:35:06;;;;;;;1.70;1.70;;;17.80;63.50;;;;;;5082748;28;43990;-70
2022/03/15 01:37:34;;;;;;;1.80;1.80;;;17.90;63.20;;;;;;5070646;28;43897;-71
2022/03/15 01:40:10;;;;;;;1.80;1.80;;;18.00;62.60;;;;;;5074511;28;43381;-71
2022/03/15 01:42:38;;;;;;;1.60;1.60;;;18.10;62.40;;;;;;5086506;28;44152;-71
2022/03/15 01:45:09;;;;;;;1.77;1.77;;;18.00;62.30;;;;;;5074283;28;43796;-71
2022/03/15 01:47:39;;;;;;;1.87;1.87;;;18.00;62.50;;;;;;5073907;27;43464;-71
2022/03/15 01:50:07;;;;;;;2.03;1.90;;;17.90;62.60;;;;;;5070643;28;43915;-70
2022/03/15 01:52:35;;;;;;;1.40;1.40;;;17.80;62.90;;;;;;5086959;28;43757;-71
2022/03/15 01:55:05;;;;;;;1.93;1.93;;;17.80;63.00;;;;;;5090078;27;43452;-71
2022/03/15 01:57:33;;;;;;;1.87;1.87;;;17.70;63.80;;;;;;5081156;28;43396;-71
2022/03/15 02:00:04;;;;;;;1.70;1.70;;;17.70;63.30;;;;;;5082169;28;43370;-70
2022/03/15 02:02:34;;;;;;;1.60;1.60;;;17.70;63.40;;;;;;5083594;28;44040;-68
2022/03/15 02:05:02;;;;;;;1.97;1.90;;;17.60;63.40;;;;;;5083665;28;46303;-69
2022/03/15 02:07:31;;;;;;;1.80;1.80;;;17.60;63.50;;;;;;5084789;28;43974;-69
2022/03/15 02:09:59;;;;;;;2.17;2.10;;;17.60;63.80;;;;;;5084295;28;43895;-69
2022/03/15 02:12:29;;;;;;;1.57;1.57;;;17.70;63.70;;;;;;5084634;28;44169;-69
2022/03/15 02:15:01;;;;;;;1.80;1.80;;;18.00;63.30;;;;;;5085653;28;43963;-68
2022/03/15 02:17:29;;;;;;;1.67;1.67;;;18.20;62.60;;;;;;5077941;28;43350;-69
2022/03/15 02:19:58;;;;;;;1.70;1.70;;;18.30;61.90;;;;;;5066361;28;43978;-68
2022/03/15 02:22:28;;;;;;;1.70;1.70;;;18.40;61.60;;;;;;5084959;28;43974;-68
2022/03/15 02:24:56;;;;;;;1.57;1.57;;;18.40;61.50;;;;;;5084191;27;44101;-69
2022/03/15 02:27:24;;;;;;;1.60;1.60;;;18.30;61.60;;;;;;5088025;27;43979;-68
2022/03/15 02:29:52;;;;;;;1.83;1.83;;;18.20;61.90;;;;;;5089186;28;44006;-68
2022/03/15 02:32:21;;;;;;;1.70;1.70;;;18.10;62.20;;;;;;5088801;28;43906;-68
2022/03/15 02:34:49;;;;;;;1.40;1.40;;;18.00;62.50;;;;;;5086747;28;46428;-69
2022/03/15 02:37:16;;;;;;;1.60;1.60;;;17.90;62.60;;;;;;5088423;27;43672;-69
2022/03/15 02:39:46;;;;;;;1.53;1.53;;;17.80;62.90;;;;;;5088289;27;44035;-69
2022/03/15 02:42:14;;;;;;;1.70;1.70;;;17.80;63.00;;;;;;5087873;28;43962;-69
2022/03/15 02:44:41;;;;;;;1.90;1.90;;;17.70;63.20;;;;;;5088043;27;43998;-69
2022/03/15 02:47:09;;;;;;;1.70;1.70;;;17.80;63.50;;;;;;5088203;28;43392;-68
2022/03/15 02:49:38;;;;;;;1.40;1.40;;;17.90;63.10;;;;;;5088581;28;43443;-70
2022/03/15 02:52:06;;;;;;;1.40;1.40;;;18.00;62.60;;;;;;5088193;28;43982;-68
2022/03/15 02:54:34;;;;;;;1.60;1.60;;;18.00;62.40;;;;;;5087438;27;43963;-69
2022/03/15 02:57:04;;;;;;;1.40;1.40;;;18.00;62.40;;;;;;5088287;27;43912;-68
2022/03/15 02:59:32;;;;;;;1.40;1.40;;;17.90;62.50;;;;;;5086328;28;44002;-69
2022/03/15 03:02:00;;;;;;;1.60;1.60;;;17.90;62.70;;;;;;5086813;28;46390;-68
2022/03/15 03:04:28;;;;;;;1.90;1.80;;;17.80;62.90;;;;;;5086165;28;46228;-69
2022/03/15 03:06:56;;;;;;;1.67;1.67;;;17.80;63.10;;;;;;5087713;28;44054;-68
2022/03/15 03:09:24;;;;;;;1.60;1.60;;;17.70;63.20;;;;;;5087859;28;44038;-68
2022/03/15 03:11:53;;;;;;;1.60;1.60;;;17.70;63.30;;;;;;5087957;27;44097;-69
2022/03/15 03:14:22;;;;;;;1.70;1.70;;;17.70;63.40;;;;;;5087699;28;43966;-68
2022/03/15 03:16:50;;;;;;;1.63;1.63;;;17.60;63.50;;;;;;5086204;28;43954;-69
2022/03/15 03:19:18;;;;;;;1.80;1.80;;;17.60;63.50;;;;;;5086533;28;44049;-68
2022/03/15 03:21:48;;;;;;;1.43;1.43;;;17.60;63.70;;;;;;5086959;28;43945;-69
2022/03/15 03:24:19;;;;;;;1.67;1.67;;;17.70;63.70;;;;;;5087373;28;43903;-69
2022/03/15 03:26:47;;;;;;;1.50;1.50;;;17.90;63.30;;;;;;5075578;28;43770;-69
2022/03/15 03:29:15;;;;;;;1.60;1.60;;;18.10;62.80;;;;;;5068694;28;43997;-69
2022/03/15 03:31:44;;;;;;;1.57;1.57;;;18.20;62.10;;;;;;5065834;28;47208;-69
2022/03/15 03:34:13;;;;;;;1.67;1.67;;;18.30;61.70;;;;;;5067900;28;43824;-68
2022/03/15 03:36:41;;;;;;;1.43;1.43;;;18.30;61.50;;;;;;5067352;28;43454;-68
2022/03/15 03:39:24;;;;;;;1.67;1.67;;;18.20;61.60;;;;;;5068144;28;43954;-68
2022/03/15 03:41:53;;;;;;;1.60;1.60;;;18.10;61.90;;;;;;5067695;28;43927;-68
2022/03/15 03:44:21;;;;;;;1.57;1.57;;;18.00;62.20;;;;;;5066649;28;45629;-69
2022/03/15 03:46:50;;;;;;;1.47;1.47;;;17.90;62.40;;;;;;5067392;28;43924;-68
2022/03/15 03:49:18;;;;;;;1.63;1.63;;;17.80;62.60;;;;;;5067312;28;43957;-69
2022/03/15 03:51:46;;;;;;;1.50;1.50;;;17.80;62.90;;;;;;5067308;28;44199;-69
2022/03/15 03:54:14;;;;;;;1.50;1.50;;;17.80;63.10;;;;;;5067514;28;44038;-69
2022/03/15 03:56:42;;;;;;;1.37;1.37;;;17.70;63.20;;;;;;5067494;28;43932;-68
2022/03/15 03:59:12;;;;;;;1.40;1.40;;;17.70;63.50;;;;;;5068190;28;43979;-68
2022/03/15 04:01:42;;;;;;;1.60;1.60;;;17.80;63.30;;;;;;5067044;28;44041;-68
2022/03/15 04:04:12;;;;;;;1.50;1.50;;;18.00;62.80;;;;;;5082590;28;43983;-69
2022/03/15 04:06:40;;;;;;;1.53;1.53;;;18.00;62.40;;;;;;5086263;28;43909;-68
2022/03/15 04:09:09;;;;;;;1.50;1.50;;;18.00;62.40;;;;;;5087455;27;43421;-68
2022/03/15 04:11:40;;;;;;;1.40;1.40;;;17.90;62.40;;;;;;5087225;27;44000;-68
2022/03/15 04:14:08;;;;;;;1.47;1.47;;;17.90;62.70;;;;;;5086901;27;43376;-68
2022/03/15 04:16:37;;;;;;;1.50;1.50;;;17.80;62.90;;;;;;5086285;28;44076;-68
2022/03/15 04:19:05;;;;;;;1.20;1.20;;;17.70;62.90;;;;;;5087321;28;43960;-69
2022/03/15 04:21:34;;;;;;;1.30;1.30;;;17.70;63.10;;;;;;5086663;28;44025;-69
2022/03/15 04:24:02;;;;;;;1.50;1.50;;;17.70;63.30;;;;;;5086832;28;44032;-68
2022/03/15 04:26:30;;;;;;;1.30;1.30;;;17.70;63.50;;;;;;5086156;28;44006;-68
2022/03/15 04:28:58;;;;;;;1.27;1.27;;;17.60;63.40;;;;;;5087310;28;43466;-68
2022/03/15 04:31:26;;;;;;;1.50;1.50;;;17.60;63.50;;;;;;5086452;28;45145;-68
2022/03/15 04:33:54;;;;;;;1.57;1.57;;;17.60;63.80;;;;;;5086451;27;43885;-68
2022/03/15 04:36:22;;;;;;;1.47;1.47;;;17.60;63.70;;;;;;5086753;28;44000;-69
2022/03/15 04:38:52;;;;;;;1.30;1.30;;;17.80;63.40;;;;;;5086844;27;44100;-68
2022/03/15 04:41:20;;;;;;;1.60;1.60;;;18.00;62.70;;;;;;5086235;28;43910;-69
2022/03/15 04:43:47;;;;;;;1.40;1.40;;;18.20;62.20;;;;;;5084789;28;44992;-68
2022/03/15 04:46:15;;;;;;;1.50;1.50;;;18.30;61.70;;;;;;5085290;28;44467;-68
2022/03/15 04:48:43;;;;;;;1.60;1.60;;;18.30;61.70;;;;;;5084912;27;44194;-68
2022/03/15 04:51:12;;;;;;;1.20;1.20;;;18.20;61.60;;;;;;5086185;27;44050;-69
2022/03/15 04:53:46;;;;;;;1.20;1.20;;;18.10;61.90;;;;;;5083963;28;43991;-68
2022/03/15 04:56:15;;;;;;;1.37;1.37;;;18.00;62.10;;;;;;5084694;28;44010;-69
2022/03/15 04:58:43;;;;;;;1.60;1.60;;;17.90;62.40;;;;;;5086252;27;44008;-70
2022/03/15 05:01:11;;;;;;;1.40;1.40;;;17.80;62.60;;;;;;5086019;28;44115;-68
2022/03/15 05:03:39;;;;;;;1.30;1.30;;;17.80;62.90;;;;;;5085378;28;44065;-69
2022/03/15 05:06:07;;;;;;;1.63;1.57;;;17.70;63.00;;;;;;5086156;27;43343;-68
2022/03/15 05:08:35;;;;;;;1.40;1.40;;;17.70;63.10;;;;;;5085854;28;43457;-68
2022/03/15 05:11:07;;;;;;;1.63;1.63;;;17.70;63.50;;;;;;5086001;28;43979;-69
2022/03/15 05:13:39;;;;;;;1.20;1.20;;;17.80;63.40;;;;;;5085505;28;44071;-68
2022/03/15 05:16:09;;;;;;;1.60;1.60;;;17.90;62.80;;;;;;5086215;27;43855;-69
2022/03/15 05:18:39;;;;;;;1.40;1.40;;;18.00;62.40;;;;;;5086261;27;44007;-68
2022/03/15 05:21:07;;;;;;;1.37;1.37;;;18.00;62.30;;;;;;5080221;28;43939;-68
2022/03/15 05:23:35;;;;;;;1.30;1.30;;;18.00;62.50;;;;;;5078433;28;43978;-69
2022/03/15 05:26:03;;;;;;;1.40;1.40;;;17.90;62.50;;;;;;5085563;28;43409;-68
2022/03/15 05:28:31;;;;;;;1.30;1.30;;;17.80;62.80;;;;;;5085499;28;44232;-68
2022/03/15 05:31:02;;;;;;;1.47;1.47;;;17.80;63.00;;;;;;5086014;27;44841;-68
2022/03/15 05:33:30;;;;;;;1.47;1.47;;;17.70;63.10;;;;;;5059618;28;43406;-68
2022/03/15 05:35:58;;;;;;;1.10;1.10;;;17.70;63.30;;;;;;5060076;28;43912;-69
2022/03/15 05:38:26;;;;;;;1.33;1.33;;;17.60;63.30;;;;;;5059804;28;43946;-68
2022/03/15 05:40:54;;;;;;;1.37;1.37;;;17.60;63.50;;;;;;5059281;28;44065;-68
2022/03/15 05:43:42;;;;;;;1.30;1.30;;;17.60;63.60;;;;;;5062017;28;43900;-68
2022/03/15 05:46:12;;;;;;;1.30;1.30;;;17.60;63.70;;;;;;5064616;28;44127;-70
2022/03/15 05:48:40;;;;;;;1.40;1.40;;;17.60;63.90;;;;;;5065827;28;44029;-69
2022/03/15 05:51:08;;;;;;;1.30;1.30;;;17.70;63.70;;;;;;5065708;28;44002;-68
2022/03/15 05:53:37;;;;;;;1.30;1.30;;;17.90;63.10;;;;;;5065322;28;44041;-68
2022/03/15 05:56:05;;;;;;;1.30;1.30;;;18.10;62.50;;;;;;5066138;28;43989;-69
2022/03/15 05:58:33;;;;;;;1.43;1.43;;;18.30;62.00;;;;;;5082352;27;44034;-68
2022/03/15 06:01:01;;;;;;;1.30;1.30;;;18.30;61.70;;;;;;5077478;28;46021;-69
2022/03/15 06:03:31;;;;;;;1.20;1.20;;;18.30;61.60;;;;;;5069718;28;44077;-69
2022/03/15 06:05:59;;;;;;;1.33;1.33;;;18.20;61.70;;;;;;5068811;28;43412;-69
2022/03/15 06:08:27;;;;;;;1.60;1.60;;;18.10;61.90;;;;;;5079799;28;43971;-68
2022/03/15 06:10:57;;;;;;;1.17;1.17;;;18.00;62.20;;;;;;5089195;28;43914;-69
2022/03/15 06:13:25;;;;;;;1.40;1.40;;;17.90;62.50;;;;;;5088877;28;43987;-69
2022/03/15 06:15:53;;;;;;;1.37;1.37;;;17.80;62.70;;;;;;5089568;28;43998;-68
2022/03/15 06:18:21;;;;;;;1.20;1.20;;;17.80;62.90;;;;;;5090275;27;44005;-68
2022/03/15 06:20:50;;;;;;;1.30;1.30;;;17.70;63.00;;;;;;5089064;28;44084;-68
2022/03/15 06:23:23;;;;;;;1.17;1.17;;;17.70;63.10;;;;;;5088891;28;43948;-69
2022/03/15 06:25:51;;;;;;;1.20;1.20;;;17.70;63.50;;;;;;5089339;28;43900;-68
2022/03/15 06:28:19;;;;;;;1.40;1.40;;;17.80;63.40;;;;;;5076716;27;44013;-68
2022/03/15 06:30:46;;;;;;;1.13;1.13;;;17.90;62.80;;;;;;5080454;28;43881;-69
2022/03/15 06:33:16;;;;;;;1.67;1.67;;;18.00;62.50;;;;;;5089015;27;44135;-68
2022/03/15 06:35:46;;;;;;;1.13;1.13;;;18.00;62.40;;;;;;5088998;27;44477;-68
2022/03/15 06:38:15;;;;;;;1.33;1.33;;;17.90;62.40;;;;;;5089153;27;43841;-68
2022/03/15 06:40:43;;;;;;;1.30;1.30;;;17.90;62.60;;;;;;5086953;28;45796;-68
2022/03/15 06:43:13;;;;;;;1.30;1.30;;;17.80;62.70;;;;;;5089077;27;43886;-69
2022/03/15 06:45:42;;;;;;;1.40;1.30;;;17.80;63.00;;;;;;5088790;27;44050;-68
2022/03/15 06:48:10;;;;;;;1.37;1.37;;;17.70;63.00;;;;;;5089032;28;44028;-69
2022/03/15 06:50:39;;;;;;;1.00;1.00;;;17.60;63.10;;;;;;5087988;28;43936;-68
2022/03/15 06:53:07;;;;;;;1.10;1.10;;;17.60;63.20;;;;;;5088222;27;44135;-68
2022/03/15 06:55:37;;;;;;;1.37;1.37;;;17.60;63.40;;;;;;5088438;28;43981;-68
2022/03/15 06:58:04;;;;;;;1.50;1.50;;;17.50;63.40;;;;;;5088834;27;43916;-69
2022/03/15 07:00:32;;;;;;;1.30;1.30;;;17.60;63.60;;;;;;5086548;28;45103;-69
2022/03/15 07:03:01;;;;;;;1.20;1.20;;;17.60;63.80;;;;;;5088281;27;43467;-69
2022/03/15 07:05:29;;;;;;;1.30;1.30;;;17.70;63.40;;;;;;5087838;28;43963;-68
2022/03/15 07:07:57;;;;;;;1.43;1.43;;;17.90;62.90;;;;;;5088233;28;43944;-68
2022/03/15 07:10:25;;;;;;;1.20;1.20;;;18.10;62.30;;;;;;5087279;27;43903;-68
2022/03/15 07:12:54;;;;;;;1.50;1.50;;;18.20;61.90;;;;;;5088468;28;43388;-68
2022/03/15 07:15:22;;;;;;;1.40;1.40;;;18.30;61.70;;;;;;5061912;28;43382;-68
2022/03/15 07:17:55;;;;;;;1.20;1.20;;;18.20;61.60;;;;;;5069166;28;43415;-69
2022/03/15 07:20:23;;;;;;;1.03;1.03;;;18.10;61.70;;;;;;5068360;28;44037;-68
2022/03/15 07:22:51;;;;;;;1.30;1.30;;;18.00;62.00;;;;;;5068473;28;43466;-69
2022/03/15 07:25:20;;;;;;;1.30;1.30;;;17.90;62.20;;;;;;5068358;28;43391;-68
2022/03/15 07:27:48;;;;;;;1.23;1.23;;;17.80;62.50;;;;;;5068743;28;43461;-68
2022/03/15 07:30:17;;;;;;;1.20;1.20;;;17.80;62.80;;;;;;5081944;28;43994;-68
2022/03/15 07:32:45;;;;;;;1.20;1.20;;;17.70;62.80;;;;;;5087685;28;43971;-68
2022/03/15 07:35:13;;;;;;;1.20;1.20;;;17.70;63.10;;;;;;5087507;28;44050;-68
2022/03/15 07:37:49;;;;;;;1.33;1.33;;;17.60;63.30;;;;;;5088244;28;43975;-69
2022/03/15 07:40:17;;;;;;;1.30;1.30;;;17.70;63.40;;;;;;5087949;27;43913;-69
2022/03/15 07:42:46;;;;;;;1.50;1.50;;;17.90;63.10;;;;;;5087567;28;44032;-69
2022/03/15 07:45:13;;;;;;;1.10;1.10;;;18.00;62.50;;;;;;5087822;28;44012;-68
2022/03/15 07:47:43;;;;;;;1.30;1.30;;;18.10;62.10;;;;;;5081579;28;43904;-68
2022/03/15 07:50:11;;;;;;;1.50;1.47;;;18.20;61.90;;;;;;5085698;28;46114;-69
2022/03/15 07:52:39;;;;;;;1.10;1.10;;;18.10;61.90;;;;;;5087081;27;43983;-69
2022/03/15 07:55:09;;;;;;;1.13;1.13;;;18.00;62.70;;;;;;5086578;27;43398;-69
2022/03/15 07:57:37;;;;;;;1.20;1.20;;;17.90;62.10;;;;;;5087610;27;43918;-68
2022/03/15 08:00:06;;;;;;;1.10;1.10;;;17.80;62.40;;;;;;5087470;28;44033;-69
2022/03/15 08:02:40;;;;;;;1.00;1.00;;;17.80;62.70;;;;;;5084174;27;43951;-69
2022/03/15 08:05:09;;;;;;;1.20;1.20;;;17.70;62.90;;;;;;5087984;28;43763;-68
2022/03/15 08:07:37;;;;;;;1.30;1.30;;;17.70;63.00;;;;;;5087908;28;43797;-69
2022/03/15 08:10:06;;;;;;;1.00;1.00;;;17.60;63.10;;;;;;5087626;28;44996;-68
2022/03/15 08:12:34;;;;;;;1.57;1.30;;;17.60;63.20;;;;;;5085401;28;46389;-68
2022/03/15 08:15:02;;;;;;;1.40;1.40;;;17.60;63.50;;;;;;5087578;27;43959;-68
2022/03/15 08:17:30;;;;;;;1.30;1.30;;;17.70;63.60;;;;;;5086230;28;43653;-68
2022/03/15 08:19:58;;;;;;;1.30;1.30;;;17.80;63.10;;;;;;5076811;27;43945;-69
2022/03/15 08:22:29;;;;;;;1.30;1.30;;;18.00;62.50;;;;;;5066059;28;45057;-68
2022/03/15 08:24:56;;;;;;;1.20;1.20;;;18.20;62.10;;;;;;5067764;28;43422;-68
2022/03/15 08:27:24;;;;;;;1.20;1.20;;;18.20;61.80;;;;;;5067705;28;43974;-69
2022/03/15 08:29:52;;;;;;;1.40;1.40;;;18.20;61.70;;;;;;5067346;28;44006;-68
2022/03/15 08:32:21;;;;;;;1.20;1.20;;;18.10;61.70;;;;;;5067635;28;44156;-68
2022/03/15 08:34:50;;;;;;;1.40;1.20;;;18.00;62.00;;;;;;5067694;28;43903;-69
2022/03/15 08:37:17;;;;;;;1.30;1.30;;;17.90;62.20;;;;;;5068097;28;44170;-69
2022/03/15 08:39:47;;;;;;;1.20;1.20;;;17.80;63.20;;;;;;5065809;28;44161;-69
2022/03/15 08:42:15;;;;;;;1.20;1.20;;;17.80;62.70;;;;;;5067222;28;43402;-69
2022/03/15 08:44:43;;;;;;;1.20;1.20;;;17.70;62.80;;;;;;5066991;28;44020;-68
2022/03/15 08:47:11;;;;;;;1.10;1.10;;;17.70;63.00;;;;;;5066198;28;43535;-68
2022/03/15 08:49:41;;;;;;;1.30;1.30;;;17.60;63.10;;;;;;5067062;28;43973;-69
2022/03/15 08:52:10;;;;;;;1.47;1.47;;;17.60;63.50;;;;;;5066883;28;44087;-68
2022/03/15 08:54:38;;;;;;;1.60;1.57;;;17.70;63.40;;;;;;5066730;28;43973;-69
2022/03/15 08:57:08;;;;;;;1.30;1.30;;;17.90;62.90;;;;;;5068032;28;43996;-69
2022/03/15 08:59:36;;;;;;;1.40;1.40;;;18.00;62.60;;;;;;5067236;28;43919;-69
2022/03/15 09:02:05;;;;;;;1.20;1.20;;;18.00;62.40;;;;;;5072735;28;43836;-69
2022/03/15 09:04:34;;;;;;;1.20;1.20;;;17.90;62.30;;;;;;5085975;27;44040;-69
2022/03/15 09:07:02;;;;;;;1.30;1.30;;;17.80;62.40;;;;;;5086959;28;44054;-69
2022/03/15 09:09:30;;;;;;;1.10;1.10;;;17.80;62.60;;;;;;5086168;28;43932;-69
2022/03/15 09:11:58;;;;;;;1.20;1.20;;;17.70;62.70;;;;;;5086578;27;43988;-68
2022/03/15 09:14:28;;;;;;;1.27;1.27;;;17.70;63.00;;;;;;5086576;28;44028;-69
2022/03/15 09:16:56;;;;;;;1.53;1.53;;;17.60;63.10;;;;;;5086882;28;43426;-69
2022/03/15 09:19:24;;;;;;;1.47;1.40;;;17.60;63.20;;;;;;5086221;28;43979;-68
2022/03/15 09:21:52;;;;;;;1.50;1.50;;;17.60;63.20;;;;;;5060005;28;43986;-69
2022/03/15 09:24:20;;;;;;;2.27;2.03;;;17.50;63.30;;;;;;5060240;28;43993;-69
2022/03/15 09:26:48;;;;;;;2.20;2.00;;;17.50;63.50;;;;;;5060238;28;44082;-69
2022/03/15 09:29:16;;;;;;;2.47;2.27;;;17.60;63.90;;;;;;5066312;28;44013;-69
2022/03/15 09:31:45;;;;;;;3.07;2.30;;;17.70;63.60;;;;;;5059680;28;43935;-68
2022/03/15 09:34:21;;;;;;;3.63;2.07;;;17.90;63.00;;;;;;5060801;28;43956;-69
2022/03/15 09:36:49;;;;;;;5.07;2.40;;;18.10;62.40;;;;;;5086403;27;43864;-68
2022/03/15 09:39:18;;;;;;;3.17;2.40;;;18.30;61.90;;;;;;5084360;28;46028;-69
2022/03/15 09:41:48;;;;;;;4.10;2.83;;;18.30;61.70;;;;;;5085742;28;43892;-69
2022/03/15 09:44:17;;;;;;;3.97;2.63;;;18.20;61.60;;;;;;5085720;28;43405;-68
2022/03/15 09:46:51;;;;;;;3.80;2.20;;;18.10;61.80;;;;;;5086340;27;43956;-68
2022/03/15 09:49:26;;;;;;;5.07;2.70;;;18.00;62.00;;;;;;5085975;27;44031;-68
2022/03/15 09:51:56;;;;;;;4.83;3.20;;;17.90;62.40;;;;;;5084289;28;44849;-69
2022/03/15 09:54:25;;;;;;;4.13;3.03;;;17.80;62.60;;;;;;5085209;28;43541;-68
2022/03/15 09:56:53;;;;;;;3.47;3.00;;;17.70;62.70;;;;;;5086158;27;43928;-68
2022/03/15 09:59:22;;;;;;;4.80;3.37;;;17.70;63.00;;;;;;5085663;27;43951;-69
2022/03/15 10:01:53;;;;;;;4.10;3.10;;;17.60;63.00;;;;;;5084047;28;43442;-68
2022/03/15 10:04:22;;;;;;;4.63;3.30;;;17.60;63.30;;;;;;5085831;27;43753;-68
2022/03/15 10:06:50;;;;;;;4.53;3.30;;;17.70;63.50;;;;;;5086184;27;43979;-68
2022/03/15 10:09:18;;;;;;;4.00;3.63;;;17.80;63.00;;;;;;5084122;28;46121;-69
2022/03/15 10:11:46;;;;;;;3.63;3.27;;;17.90;62.50;;;;;;5085100;28;43931;-68
2022/03/15 10:14:14;;;;;;;4.43;3.00;;;18.00;62.40;;;;;;5084124;28;43984;-68
2022/03/15 10:16:42;;;;;;;3.70;2.80;;;17.90;62.30;;;;;;5085910;27;43518;-68
2022/03/15 10:19:13;;;;;;;4.93;3.10;;;17.90;62.50;;;;;;5085768;27;43985;-69
2022/03/15 10:21:44;;;;;;;2.80;2.60;;;17.80;62.60;;;;;;5085125;28;43363;-69
2022/03/15 10:24:14;;;;;;;3.20;2.80;;;17.70;62.80;;;;;;5085551;27;43903;-68
2022/03/15 10:26:42;;;;;;;3.30;3.00;;;17.70;63.00;;;;;;5085335;28;43687;-68
2022/03/15 10:29:13;;;;;;;3.83;3.00;;;17.60;63.10;;;;;;5085529;27;44791;-69
2022/03/15 10:31:41;;;;;;;3.63;3.33;;;17.60;63.20;;;;;;5084773;28;43966;-69
2022/03/15 10:34:09;;;;;;;3.00;2.70;;;17.60;63.40;;;;;;5084359;28;43911;-68
2022/03/15 10:36:40;;;;;;;3.37;3.03;;;17.50;63.30;;;;;;5058437;28;43415;-68
2022/03/15 10:39:08;;;;;;;3.10;2.90;;;17.50;63.40;;;;;;5059441;28;44068;-69
2022/03/15 10:41:46;;;;;;;3.37;2.67;;;17.50;63.50;;;;;;5059095;28;43967;-68
2022/03/15 10:44:18;;;;;;;3.60;3.00;;;17.50;63.50;;;;;;5064510;28;43948;-68
2022/03/15 10:47:01;;;;;;;2.70;2.60;;;17.50;63.50;;;;;;5067848;28;43958;-68
2022/03/15 10:49:29;;;;;;;3.43;3.00;;;17.50;63.60;;;;;;5069100;28;46439;-69
2022/03/15 10:51:59;;;;;;;3.17;2.80;;;17.50;63.70;;;;;;5067878;28;44957;-69
2022/03/15 10:54:29;;;;;;;3.53;3.23;;;17.50;63.80;;;;;;5069294;28;44029;-69
2022/03/15 10:56:57;;;;;;;5.97;3.10;;;17.50;63.90;;;;;;5069957;28;44008;-69
2022/03/15 10:59:26;;;;;;;3.70;2.77;;;17.60;63.40;;;;;;5068763;28;45108;-68
2022/03/15 11:01:54;;;;;;;3.13;2.83;;;17.80;63.20;;;;;;5069194;28;44037;-68
2022/03/15 11:04:23;;;;;;;3.10;2.73;;;18.00;62.80;;;;;;5069197;28;43943;-68
2022/03/15 11:06:52;;;;;;;2.83;2.70;;;18.20;62.30;;;;;;5069523;28;43884;-68
2022/03/15 11:09:27;;;;;;;3.17;2.87;;;18.40;61.80;;;;;;5068754;28;43837;-69
2022/03/15 11:12:00;;;;;;;2.97;2.77;;;18.50;61.20;;;;;;5068776;28;44067;-69
2022/03/15 11:14:32;;;;;;;3.23;2.87;;;18.70;60.90;;;;;;5068944;28;43936;-69
2022/03/15 11:17:01;;;;;;;3.43;2.97;;;18.80;60.40;;;;;;5063017;28;43439;-69
2022/03/15 11:19:30;;;;;;;2.90;2.70;;;18.90;60.10;;;;;;5062459;28;44015;-69
2022/03/15 11:21:58;;;;;;;2.90;2.70;;;19.00;59.90;;;;;;5068583;28;44063;-69
2022/03/15 11:24:28;;;;;;;3.10;2.90;;;19.00;59.80;;;;;;5068665;28;43951;-68
2022/03/15 11:26:56;;;;;;;2.67;2.50;;;19.00;59.80;;;;;;5069134;28;43903;-68
2022/03/15 11:29:24;;;;;;;2.57;2.40;;;18.90;60.10;;;;;;5068475;28;43899;-68
2022/03/15 11:31:52;;;;;;;2.80;2.70;;;18.70;60.30;;;;;;5067059;28;45106;-69
2022/03/15 11:34:20;;;;;;;3.00;2.80;;;18.50;60.70;;;;;;5068717;28;44022;-69
2022/03/15 11:36:48;;;;;;;2.90;2.70;;;18.30;60.90;;;;;;5067305;28;43854;-69
2022/03/15 11:39:16;;;;;;;3.07;2.77;;;18.20;61.30;;;;;;5068230;28;43896;-69
2022/03/15 11:41:46;;;;;;;2.60;2.40;;;18.10;61.70;;;;;;5068139;28;43929;-68
2022/03/15 11:44:16;;;;;;;2.63;2.43;;;18.00;61.90;;;;;;5066855;28;43352;-68
2022/03/15 11:46:46;;;;;;;3.00;2.83;;;17.90;62.70;;;;;;5066927;28;44043;-68
2022/03/15 11:49:22;;;;;;;3.73;2.60;;;18.00;62.80;;;;;;5068579;28;43746;-69
2022/03/15 11:51:54;;;;;;;2.67;2.50;;;18.10;62.50;;;;;;5068145;28;43825;-68
2022/03/15 11:54:27;;;;;;;3.07;2.87;;;18.10;62.20;;;;;;5067992;28;43993;-68
2022/03/15 11:56:57;;;;;;;2.93;2.73;;;18.10;62.20;;;;;;5068681;28;43980;-68
2022/03/15 11:59:25;;;;;;;2.83;2.73;;;18.00;62.20;;;;;;5068388;28;45096;-68
2022/03/15 12:01:55;;;;;;;2.70;2.60;;;17.90;62.20;;;;;;5068705;28;43987;-68
2022/03/15 12:04:24;;;;;;;3.03;2.83;;;17.90;62.40;;;;;;5066938;28;43378;-69
2022/03/15 12:06:55;;;;;;;2.50;2.30;;;17.80;62.60;;;;;;5068257;28;44045;-69
2022/03/15 12:09:28;;;;;;;2.70;2.60;;;17.70;62.70;;;;;;5066149;28;46404;-68
2022/03/15 12:12:02;;;;;;;2.93;2.77;;;17.70;63.00;;;;;;5068197;28;44049;-68
2022/03/15 12:14:39;;;;;;;2.70;2.50;;;17.60;63.00;;;;;;5067125;28;44307;-69
2022/03/15 12:17:07;;;;;;;2.70;2.60;;;17.60;63.20;;;;;;5087671;28;43452;-68
2022/03/15 12:19:44;;;;;;;2.90;2.80;;;17.60;63.30;;;;;;5087033;27;43903;-69
2022/03/15 12:22:24;;;;;;;2.57;2.37;;;17.60;63.80;;;;;;5086746;28;44021;-69
2022/03/15 12:25:02;;;;;;;2.50;2.40;;;17.70;63.80;;;;;;5085831;28;43974;-68
2022/03/15 12:27:51;;;;;;;2.43;2.33;;;17.90;63.30;;;;;;5087558;27;44499;-68
2022/03/15 12:30:26;;;;;;;2.77;2.67;;;18.00;62.70;;;;;;5087008;28;44012;-68
2022/03/15 12:32:54;;;;;;;2.70;2.60;;;18.10;62.20;;;;;;5085201;28;46442;-68
2022/03/15 12:35:25;;;;;;;2.87;2.67;;;18.20;62.10;;;;;;5087141;28;43384;-68
2022/03/15 12:37:53;;;;;;;2.60;2.40;;;18.20;62.00;;;;;;5086213;28;43971;-69
2022/03/15 12:40:21;;;;;;;2.50;2.40;;;18.10;62.10;;;;;;5086397;27;43938;-68
2022/03/15 12:42:57;;;;;;;2.70;2.60;;;18.00;62.10;;;;;;5085178;27;44005;-68
2022/03/15 12:45:25;;;;;;;2.30;2.20;;;17.90;62.20;;;;;;5086883;28;44025;-68
2022/03/15 12:47:53;;;;;;;3.03;2.43;;;17.80;62.50;;;;;;5086231;27;44013;-68
2022/03/15 12:50:40;;;;;;;2.60;2.40;;;17.80;62.70;;;;;;5086783;27;44030;-68
2022/03/15 12:53:10;;;;;;;2.20;2.10;;;17.70;62.90;;;;;;5086678;28;43969;-70
2022/03/15 12:55:41;;;;;;;2.20;2.10;;;17.70;63.10;;;;;;5086735;28;43982;-68
2022/03/15 12:58:12;;;;;;;2.63;2.43;;;17.60;63.50;;;;;;5085861;28;43939;-68